Time;durP1;ratioP1;P1;durP2;ratioP2;P2;SDS_P1;SDS_P2;PMS_P1;PMS_P2;Temp;Humidity;BMP_temperature;BMP_pressure;BME280_temperature;BME280_humidity;BME280_pressure;Samples;Min_cycle;Max_cycle;Signal;HPM_P1;HPM_P2
2021/06/06 00:02:00;;;;;;;4.32;2.75;;;17.40;59.50;;;;;;5041122;28;20029;-76
2021/06/06 00:04:26;;;;;;;5.15;2.63;;;17.40;59.90;;;;;;5039129;28;20033;-76
2021/06/06 00:06:52;;;;;;;5.53;3.33;;;17.30;60.20;;;;;;5053038;28;20037;-76
2021/06/06 00:09:20;;;;;;;4.97;3.33;;;17.20;60.40;;;;;;5045711;28;20028;-77
2021/06/06 00:11:50;;;;;;;6.45;3.53;;;17.10;60.50;;;;;;5039937;28;20028;-77
2021/06/06 00:14:29;;;;;;;8.95;3.97;;;17.00;60.60;;;;;;5055532;28;20013;-76
2021/06/06 00:16:58;;;;;;;8.00;3.30;;;17.00;60.70;;;;;;5040296;28;20020;-77
2021/06/06 00:19:25;;;;;;;7.75;3.10;;;16.90;60.70;;;;;;5055020;28;20028;-76
2021/06/06 00:21:53;;;;;;;4.50;3.00;;;16.80;60.60;;;;;;5053826;28;20029;-76
2021/06/06 00:24:23;;;;;;;5.28;2.72;;;16.80;60.80;;;;;;5050967;28;20029;-77
2021/06/06 00:26:48;;;;;;;3.20;2.53;;;16.70;60.90;;;;;;5047868;28;20025;-76
2021/06/06 00:29:14;;;;;;;7.18;2.95;;;16.60;60.80;;;;;;5054383;28;20021;-76
2021/06/06 00:31:40;;;;;;;4.10;2.60;;;16.50;60.90;;;;;;5032617;28;20024;-77
2021/06/06 00:34:06;;;;;;;5.57;2.70;;;16.40;61.10;;;;;;5035965;28;20108;-76
2021/06/06 00:36:32;;;;;;;3.95;3.00;;;16.30;61.50;;;;;;5026041;28;20416;-76
2021/06/06 00:38:58;;;;;;;5.45;3.13;;;16.30;62.20;;;;;;5049356;28;20056;-77
2021/06/06 00:41:27;;;;;;;5.03;3.50;;;16.10;62.90;;;;;;5054640;28;20045;-76
2021/06/06 00:43:53;;;;;;;6.65;2.92;;;16.00;62.90;;;;;;5052507;28;20074;-76
2021/06/06 00:46:21;;;;;;;3.28;2.55;;;15.90;63.10;;;;;;5031917;28;20029;-76
2021/06/06 00:48:47;;;;;;;4.78;3.55;;;15.80;63.30;;;;;;5033349;28;20025;-76
2021/06/06 00:51:38;;;;;;;9.10;4.57;;;15.70;63.40;;;;;;5050504;28;20025;-75
2021/06/06 00:54:26;;;;;;;7.70;5.40;;;15.60;64.00;;;;;;5031161;28;20045;-77
2021/06/06 00:56:58;;;;;;;7.15;4.28;;;15.50;64.30;;;;;;5040980;28;20032;-76
2021/06/06 00:59:27;;;;;;;10.00;4.37;;;15.40;64.00;;;;;;5053857;28;20025;-76
2021/06/06 01:01:53;;;;;;;7.28;4.28;;;15.40;64.20;;;;;;5053934;28;20032;-76
2021/06/06 01:04:20;;;;;;;7.50;4.15;;;15.30;64.30;;;;;;5050306;28;20100;-76
2021/06/06 01:06:48;;;;;;;8.68;4.35;;;15.20;64.60;;;;;;5052879;28;20094;-76
2021/06/06 01:09:16;;;;;;;5.88;3.75;;;15.20;64.90;;;;;;5038718;28;20024;-76
2021/06/06 01:11:48;;;;;;;5.70;3.90;;;15.10;65.20;;;;;;5046770;28;20375;-75
2021/06/06 01:14:21;;;;;;;6.60;3.95;;;15.00;65.50;;;;;;5047127;28;20470;-75
2021/06/06 01:16:55;;;;;;;7.32;4.35;;;14.90;65.80;;;;;;5030171;28;20039;-74
2021/06/06 01:19:50;;;;;;;6.80;3.95;;;14.90;66.00;;;;;;5047756;28;20051;-73
2021/06/06 01:22:49;;;;;;;6.78;3.70;;;14.70;66.60;;;;;;5053268;28;20033;-72
2021/06/06 01:25:24;;;;;;;4.70;3.10;;;14.60;67.10;;;;;;5053588;28;20470;-72
2021/06/06 01:28:02;;;;;;;4.85;3.60;;;14.60;66.60;;;;;;5052108;28;20071;-73
2021/06/06 01:30:32;;;;;;;6.63;3.85;;;14.50;66.90;;;;;;5047814;28;20056;-73
2021/06/06 01:33:25;;;;;;;6.38;3.45;;;14.40;67.00;;;;;;5053440;28;20021;-73
2021/06/06 01:36:01;;;;;;;8.70;3.40;;;14.30;67.30;;;;;;5042369;28;20028;-73
2021/06/06 01:38:51;;;;;;;7.80;4.00;;;14.30;67.60;;;;;;5034146;28;20159;-72
2021/06/06 01:41:22;;;;;;;6.22;3.70;;;14.20;67.80;;;;;;5038964;28;20090;-73
2021/06/06 01:43:52;;;;;;;5.78;4.07;;;14.20;68.00;;;;;;5049391;28;20029;-73
2021/06/06 01:46:40;;;;;;;5.15;3.67;;;14.10;68.50;;;;;;5053414;28;20493;-73
2021/06/06 01:49:08;;;;;;;6.82;3.53;;;14.10;68.80;;;;;;5034900;28;20056;-73
2021/06/06 01:51:38;;;;;;;5.22;3.50;;;14.00;69.00;;;;;;5052675;28;20057;-72
2021/06/06 01:54:09;;;;;;;5.68;3.70;;;14.00;69.20;;;;;;5048038;28;20029;-72
2021/06/06 01:56:38;;;;;;;9.02;4.38;;;13.90;69.30;;;;;;5043795;28;20021;-72
2021/06/06 01:59:13;;;;;;;7.80;4.32;;;13.90;69.70;;;;;;5048561;28;20049;-72
2021/06/06 02:01:40;;;;;;;7.00;3.92;;;13.90;70.00;;;;;;5047460;28;20017;-72
2021/06/06 02:04:07;;;;;;;8.18;4.57;;;13.80;70.10;;;;;;5050384;28;20035;-72
2021/06/06 02:06:48;;;;;;;8.57;4.25;;;13.80;70.40;;;;;;5044186;28;20397;-72
2021/06/06 02:09:19;;;;;;;7.22;4.53;;;13.70;70.90;;;;;;5042228;28;20028;-72
2021/06/06 02:12:04;;;;;;;7.38;4.30;;;13.70;70.90;;;;;;5034549;28;20512;-72
2021/06/06 02:14:36;;;;;;;6.80;4.32;;;13.70;71.30;;;;;;5045997;28;20104;-72
2021/06/06 02:17:05;;;;;;;6.70;4.40;;;13.70;71.10;;;;;;5050545;28;20091;-72
2021/06/06 02:19:33;;;;;;;9.00;4.60;;;13.70;71.20;;;;;;5052476;28;20024;-72
2021/06/06 02:22:05;;;;;;;9.20;4.90;;;13.70;71.50;;;;;;5052012;28;20029;-72
2021/06/06 02:24:30;;;;;;;8.95;6.45;;;13.80;71.70;;;;;;5051434;28;20033;-72
2021/06/06 02:27:03;;;;;;;8.02;5.68;;;13.80;71.80;;;;;;5051778;28;20073;-72
2021/06/06 02:29:40;;;;;;;9.73;5.78;;;13.80;72.00;;;;;;5043853;28;20040;-72
2021/06/06 02:32:34;;;;;;;9.07;5.47;;;13.90;72.30;;;;;;5052500;28;20108;-72
2021/06/06 02:35:11;;;;;;;8.27;5.18;;;13.90;72.40;;;;;;5043186;28;20087;-72
2021/06/06 02:37:44;;;;;;;10.13;4.90;;;14.00;72.40;;;;;;5048256;28;20025;-72
2021/06/06 02:40:29;;;;;;;10.15;5.70;;;14.10;72.70;;;;;;5036961;28;20033;-72
2021/06/06 02:42:59;;;;;;;9.52;5.80;;;14.20;72.80;;;;;;5040334;28;20079;-72
2021/06/06 02:45:27;;;;;;;9.10;5.78;;;14.30;72.70;;;;;;5053723;28;20025;-72
2021/06/06 02:47:58;;;;;;;9.70;5.53;;;14.40;72.90;;;;;;5051901;28;20052;-72
2021/06/06 02:50:31;;;;;;;6.28;4.47;;;14.50;73.00;;;;;;5043794;28;20036;-72
2021/06/06 02:53:11;;;;;;;6.65;4.65;;;14.50;73.10;;;;;;5051733;28;20087;-71
2021/06/06 02:55:42;;;;;;;7.45;4.82;;;14.60;73.00;;;;;;5045296;28;20115;-71
2021/06/06 02:58:22;;;;;;;7.40;5.20;;;14.70;73.70;;;;;;5031220;28;20040;-72
2021/06/06 03:01:09;;;;;;;7.85;4.55;;;14.80;73.10;;;;;;5044349;28;20021;-72
2021/06/06 03:03:38;;;;;;;7.55;4.57;;;14.90;73.10;;;;;;5051917;28;20028;-72
2021/06/06 03:06:11;;;;;;;9.07;5.22;;;15.00;72.90;;;;;;5040828;28;20032;-72
2021/06/06 03:08:36;;;;;;;;;;;15.20;72.90;;;;;;5051040;28;20040;-72
2021/06/06 03:11:06;;;;;;;8.93;4.40;;;15.10;73.80;;;;;;5050728;28;19912;-72
2021/06/06 03:13:39;;;;;;;7.28;4.35;;;15.20;72.40;;;;;;5051083;28;20215;-72
2021/06/06 03:16:05;;;;;;;7.00;4.60;;;15.40;72.70;;;;;;5047611;28;20096;-72
2021/06/06 03:18:35;;;;;;;9.70;4.75;;;15.40;72.50;;;;;;5043081;28;20105;-72
2021/06/06 03:21:09;;;;;;;7.97;4.85;;;15.40;72.60;;;;;;5049073;28;20040;-72
2021/06/06 03:23:36;;;;;;;9.27;5.13;;;15.50;72.80;;;;;;5063136;28;20025;-72
2021/06/06 03:26:06;;;;;;;7.07;4.80;;;15.60;72.70;;;;;;5051372;28;20040;-72
2021/06/06 03:28:34;;;;;;;10.15;5.20;;;15.70;72.80;;;;;;5050986;28;20029;-72
2021/06/06 03:31:06;;;;;;;8.95;5.28;;;15.70;72.90;;;;;;5051631;28;20029;-72
2021/06/06 03:33:53;;;;;;;7.47;4.80;;;15.80;72.80;;;;;;5046148;28;20478;-71
2021/06/06 03:36:35;;;;;;;7.57;4.85;;;15.90;72.90;;;;;;5011415;28;20056;-72
2021/06/06 03:39:05;;;;;;;9.38;4.82;;;15.90;73.00;;;;;;5028805;28;20029;-72
2021/06/06 03:41:31;;;;;;;8.38;4.40;;;16.00;72.60;;;;;;5050688;28;20078;-72
2021/06/06 03:43:57;;;;;;;6.45;4.53;;;16.00;72.50;;;;;;5048789;28;20111;-72
2021/06/06 03:46:26;;;;;;;8.02;4.30;;;16.10;72.40;;;;;;5049234;28;20474;-73
2021/06/06 03:48:51;;;;;;;4.65;3.70;;;16.20;72.40;;;;;;5044727;28;20029;-72
2021/06/06 03:51:18;;;;;;;6.57;3.97;;;16.20;72.20;;;;;;5038091;28;20039;-71
2021/06/06 03:53:44;;;;;;;5.50;3.60;;;16.30;72.10;;;;;;5044340;28;20029;-72
2021/06/06 03:56:10;;;;;;;6.07;4.03;;;16.30;72.00;;;;;;5047592;28;20024;-72
2021/06/06 03:58:36;;;;;;;7.35;4.35;;;16.40;71.60;;;;;;5051000;28;20024;-72
2021/06/06 04:01:04;;;;;;;10.30;4.75;;;16.50;71.50;;;;;;5052800;28;20056;-71
2021/06/06 04:03:29;;;;;;;8.52;4.53;;;16.50;71.30;;;;;;5044858;28;20033;-72
2021/06/06 04:05:55;;;;;;;9.55;4.15;;;16.60;70.90;;;;;;5054688;28;20025;-72
2021/06/06 04:08:21;;;;;;;8.05;4.78;;;16.70;71.00;;;;;;5041614;28;20021;-72
2021/06/06 04:10:49;;;;;;;8.00;4.15;;;16.70;71.50;;;;;;5064005;28;20023;-72
2021/06/06 04:13:15;;;;;;;7.47;4.82;;;16.80;71.60;;;;;;5052071;28;20025;-73
2021/06/06 04:15:41;;;;;;;7.10;4.63;;;16.90;72.10;;;;;;5050666;28;20027;-73
2021/06/06 04:18:14;;;;;;;8.68;5.32;;;16.90;72.10;;;;;;5050894;28;20021;-73
2021/06/06 04:20:40;;;;;;;;;;;16.90;71.90;;;;;;5049310;28;20025;-73
2021/06/06 04:23:06;;;;;;;9.18;3.85;;;16.90;72.10;;;;;;5044425;28;20007;-73
2021/06/06 04:25:32;;;;;;;5.72;4.05;;;17.00;71.20;;;;;;5049350;28;20101;-73
2021/06/06 04:27:58;;;;;;;8.50;3.70;;;16.90;71.00;;;;;;5051871;28;20076;-73
2021/06/06 04:30:24;;;;;;;6.47;3.95;;;17.00;70.60;;;;;;5045574;28;20036;-73
2021/06/06 04:32:50;;;;;;;7.75;4.00;;;17.00;70.30;;;;;;5047517;28;20052;-73
2021/06/06 04:35:16;;;;;;;6.40;3.67;;;17.00;69.80;;;;;;5036003;28;20483;-73
2021/06/06 04:37:42;;;;;;;6.00;3.58;;;17.10;69.50;;;;;;5051262;28;20497;-73
2021/06/06 04:40:10;;;;;;;5.28;3.05;;;17.10;69.30;;;;;;5047330;28;20056;-73
2021/06/06 04:42:37;;;;;;;5.22;3.47;;;17.20;69.70;;;;;;5053990;28;20356;-73
2021/06/06 04:45:08;;;;;;;4.80;3.33;;;17.20;68.80;;;;;;5051075;28;20433;-73
2021/06/06 04:47:34;;;;;;;6.28;3.47;;;17.30;68.50;;;;;;5034236;28;20120;-73
2021/06/06 04:50:00;;;;;;;6.47;3.10;;;17.40;68.20;;;;;;5037273;28;20096;-73
2021/06/06 04:52:26;;;;;;;7.53;3.30;;;17.40;67.60;;;;;;5053505;28;20029;-73
2021/06/06 04:54:51;;;;;;;5.47;3.10;;;17.50;67.40;;;;;;5059094;28;20490;-73
2021/06/06 04:57:18;;;;;;;4.72;3.13;;;17.60;67.20;;;;;;5050321;28;20355;-71
2021/06/06 04:59:43;;;;;;;4.43;3.10;;;17.60;67.20;;;;;;5047374;28;20021;-72
2021/06/06 05:02:11;;;;;;;5.05;3.25;;;17.70;67.20;;;;;;5051691;28;20028;-72
2021/06/06 05:04:40;;;;;;;5.55;3.45;;;17.80;66.90;;;;;;5047976;28;20025;-72
2021/06/06 05:07:05;;;;;;;5.25;3.05;;;17.90;66.30;;;;;;5048956;28;20036;-72
2021/06/06 05:09:31;;;;;;;6.43;3.10;;;17.90;66.00;;;;;;5051263;28;20398;-74
2021/06/06 05:11:57;;;;;;;5.60;3.60;;;18.00;65.40;;;;;;5051246;28;20021;-73
2021/06/06 05:14:23;;;;;;;5.55;2.83;;;18.00;65.10;;;;;;5043968;28;20152;-72
2021/06/06 05:16:48;;;;;;;9.50;3.33;;;18.10;64.60;;;;;;5051823;28;20538;-72
2021/06/06 05:19:14;;;;;;;4.18;2.70;;;18.10;64.30;;;;;;5050751;28;20021;-72
2021/06/06 05:21:40;;;;;;;3.97;2.42;;;18.20;64.00;;;;;;5051673;28;20170;-72
2021/06/06 05:24:06;;;;;;;4.32;2.90;;;18.30;63.80;;;;;;5053138;28;20067;-73
2021/06/06 05:26:33;;;;;;;5.32;2.72;;;18.30;63.40;;;;;;5052876;28;20056;-72
2021/06/06 07:39:13;;;;;;;3.58;2.33;;;19.00;61.50;;;;;;5120331;27;20373;-82
2021/06/06 15:49:21;;;;;;;4.55;3.40;;;25.10;48.10;;;;;;5119836;27;20468;-90
2021/06/06 15:51:51;;;;;;;6.90;3.42;;;25.50;49.00;;;;;;5110176;28;20054;-90
2021/06/06 15:54:19;;;;;;;4.00;3.20;;;25.70;48.00;;;;;;5106297;28;20031;-91
2021/06/06 15:56:44;;;;;;;5.47;3.45;;;25.80;47.70;;;;;;5108283;28;20397;-92
2021/06/06 15:59:11;;;;;;;5.43;3.40;;;26.10;47.90;;;;;;5110906;28;20075;-89
2021/06/06 16:01:37;;;;;;;4.40;3.65;;;26.60;47.50;;;;;;5100874;28;20137;-91
2021/06/06 16:04:04;;;;;;;4.88;3.55;;;27.20;46.60;;;;;;5103573;28;20036;-90
2021/06/06 16:06:31;;;;;;;5.63;3.65;;;27.30;45.70;;;;;;5103275;28;20021;-90
2021/06/06 16:09:00;;;;;;;4.38;3.30;;;27.40;45.60;;;;;;5098709;28;20088;-90
2021/06/06 16:11:27;;;;;;;6.45;3.20;;;27.60;45.80;;;;;;5100851;28;20504;-90
2021/06/06 16:13:53;;;;;;;4.40;3.10;;;27.90;45.40;;;;;;5098698;28;20024;-89
2021/06/06 16:16:20;;;;;;;4.13;3.25;;;28.40;45.10;;;;;;5102986;28;20030;-91
2021/06/06 16:18:47;;;;;;;4.00;2.60;;;28.80;44.40;;;;;;5094560;28;20112;-90
2021/06/06 16:21:18;;;;;;;5.72;3.13;;;29.20;44.00;;;;;;5098216;28;20028;-88
2021/06/06 16:23:44;;;;;;;3.80;3.00;;;29.50;43.60;;;;;;5095610;28;20029;-90
2021/06/06 16:26:11;;;;;;;3.83;2.63;;;29.80;43.00;;;;;;5094216;28;20268;-89
2021/06/06 16:28:38;;;;;;;3.72;2.83;;;29.90;42.30;;;;;;5092029;28;20150;-90
2021/06/06 16:31:06;;;;;;;3.72;2.95;;;30.10;42.40;;;;;;5105028;28;20042;-89
2021/06/06 16:33:32;;;;;;;3.92;2.90;;;30.20;42.10;;;;;;5107499;28;20027;-86
2021/06/06 16:35:58;;;;;;;5.88;3.40;;;30.10;41.40;;;;;;5108897;28;20027;-89
2021/06/06 16:38:23;;;;;;;7.18;3.55;;;29.90;41.50;;;;;;5108190;28;20023;-87
2021/06/06 16:40:49;;;;;;;6.43;3.20;;;29.80;41.40;;;;;;5108097;28;20031;-87
2021/06/06 16:43:16;;;;;;;6.82;3.90;;;29.60;41.40;;;;;;5104848;28;20031;-88
2021/06/06 16:45:43;;;;;;;5.45;3.15;;;29.20;41.40;;;;;;5098422;28;20024;-87
2021/06/06 16:48:11;;;;;;;6.07;3.53;;;28.50;41.60;;;;;;5101949;28;20497;-86
2021/06/06 16:50:37;;;;;;;4.65;3.35;;;27.60;42.20;;;;;;5101412;28;20016;-86
2021/06/06 16:53:07;;;;;;;5.40;3.33;;;26.80;43.20;;;;;;5106447;28;20029;-87
2021/06/06 16:55:46;;;;;;;4.50;3.03;;;26.00;44.00;;;;;;5104329;28;20626;-88
2021/06/06 16:58:13;;;;;;;4.97;3.28;;;25.40;44.80;;;;;;5098577;28;20143;-88
2021/06/06 17:00:41;;;;;;;6.22;3.65;;;24.70;45.70;;;;;;5088991;28;20108;-88
2021/06/06 17:03:09;;;;;;;7.35;3.42;;;24.20;46.60;;;;;;5087456;28;20089;-87
2021/06/06 17:05:36;;;;;;;9.02;3.33;;;23.70;47.40;;;;;;5091900;28;20038;-88
2021/06/06 17:08:02;;;;;;;6.25;3.83;;;23.40;48.20;;;;;;5080916;28;20079;-87
2021/06/06 17:10:30;;;;;;;5.85;3.22;;;23.00;48.90;;;;;;5079097;28;20016;-88
2021/06/06 17:12:56;;;;;;;4.95;3.08;;;22.60;49.50;;;;;;5090901;28;20020;-87
2021/06/06 17:15:49;;;;;;;4.88;3.00;;;22.30;50.00;;;;;;5084324;28;20017;-86
2021/06/06 17:18:17;;;;;;;5.15;3.22;;;22.00;51.10;;;;;;5094390;28;20039;-88
2021/06/06 17:20:43;;;;;;;6.07;3.22;;;21.70;51.40;;;;;;5087345;28;20032;-86
2021/06/06 17:23:11;;;;;;;5.95;2.88;;;21.50;51.70;;;;;;5076042;28;20443;-88
2021/06/06 17:25:37;;;;;;;5.93;4.15;;;21.30;52.30;;;;;;5084419;28;20020;-87
2021/06/06 17:28:05;;;;;;;8.65;3.80;;;21.10;53.10;;;;;;5086767;28;20028;-87
2021/06/06 17:30:34;;;;;;;6.28;4.05;;;20.90;53.50;;;;;;5095118;28;20473;-86
2021/06/06 17:33:01;;;;;;;6.70;4.25;;;20.70;54.00;;;;;;5087378;28;20496;-88
2021/06/06 17:35:30;;;;;;;8.63;4.40;;;20.50;54.30;;;;;;5091401;28;20095;-88
2021/06/06 17:37:57;;;;;;;9.02;4.82;;;20.40;54.50;;;;;;5083797;28;20024;-88
2021/06/06 17:40:23;;;;;;;10.50;5.03;;;20.30;54.70;;;;;;5089291;28;20142;-88
2021/06/06 17:42:49;;;;;;;7.97;5.10;;;20.10;54.80;;;;;;5092653;28;20578;-87
2021/06/06 17:45:15;;;;;;;9.02;5.45;;;20.10;55.00;;;;;;5094473;28;20074;-89
2021/06/06 17:47:41;;;;;;;6.63;4.72;;;20.00;55.10;;;;;;5093960;28;20051;-89
2021/06/06 17:50:11;;;;;;;8.50;5.35;;;20.00;55.50;;;;;;5086828;28;20478;-89
2021/06/06 17:52:37;;;;;;;10.75;7.03;;;19.90;55.60;;;;;;5077196;28;20056;-88
2021/06/06 17:55:05;;;;;;;10.80;6.95;;;19.80;56.10;;;;;;5092289;28;20035;-87
2021/06/06 17:57:31;;;;;;;15.63;8.05;;;19.70;56.20;;;;;;5076682;28;20036;-89
2021/06/06 17:59:57;;;;;;;13.98;7.80;;;19.60;56.30;;;;;;5089035;28;20081;-89
2021/06/06 18:02:23;;;;;;;12.32;7.82;;;19.60;56.50;;;;;;5081964;28;20063;-87
2021/06/06 18:04:48;;;;;;;8.88;5.82;;;19.50;56.60;;;;;;5085158;28;20050;-88
2021/06/06 18:07:14;;;;;;;11.45;6.88;;;19.50;56.80;;;;;;5084771;28;20664;-87
2021/06/06 18:09:40;;;;;;;11.00;7.55;;;19.40;56.90;;;;;;5078634;28;20443;-88
2021/06/06 18:12:06;;;;;;;11.93;7.07;;;19.30;57.00;;;;;;5088853;28;20044;-88
2021/06/06 18:14:32;;;;;;;12.65;8.38;;;19.30;57.30;;;;;;5085417;28;20029;-88
2021/06/06 18:16:59;;;;;;;19.48;10.48;;;19.20;57.70;;;;;;5093196;28;20016;-88
2021/06/06 18:19:25;;;;;;;15.77;7.95;;;19.10;57.90;;;;;;5086570;28;20031;-88
2021/06/06 18:21:53;;;;;;;11.50;7.93;;;19.00;58.00;;;;;;5086073;28;20473;-88
2021/06/06 18:24:22;;;;;;;10.52;6.72;;;18.90;58.30;;;;;;5091051;28;20473;-88
2021/06/06 18:26:48;;;;;;;9.07;5.38;;;18.90;58.50;;;;;;5081080;28;20024;-88
2021/06/06 18:29:14;;;;;;;7.25;4.57;;;18.80;58.50;;;;;;5087224;28;20145;-87
2021/06/06 18:31:40;;;;;;;5.38;3.80;;;18.70;58.70;;;;;;5079481;28;20115;-87
2021/06/06 18:34:07;;;;;;;7.55;4.18;;;18.60;59.00;;;;;;5091218;28;20016;-87
2021/06/06 18:36:37;;;;;;;7.30;4.35;;;18.60;59.40;;;;;;5093144;28;20024;-88
2021/06/06 18:39:05;;;;;;;5.80;4.43;;;18.60;60.30;;;;;;5093315;28;20024;-86
2021/06/06 18:41:32;;;;;;;5.20;3.70;;;18.60;59.90;;;;;;5077338;28;20024;-88
2021/06/06 18:43:58;;;;;;;6.70;3.95;;;18.50;59.80;;;;;;5087153;28;20028;-87
2021/06/06 18:46:25;;;;;;;6.85;4.07;;;18.50;59.90;;;;;;5087986;28;20055;-88
2021/06/06 18:48:52;;;;;;;7.88;4.53;;;18.40;60.10;;;;;;5075841;28;20746;-89
2021/06/06 18:51:18;;;;;;;5.82;4.38;;;18.40;60.30;;;;;;5077212;28;20016;-89
2021/06/06 18:53:44;;;;;;;9.70;4.72;;;18.30;60.50;;;;;;5076441;28;20029;-91
2021/06/06 18:56:14;;;;;;;5.53;4.20;;;18.30;60.60;;;;;;5081491;28;20054;-88
2021/06/06 18:58:41;;;;;;;7.68;5.20;;;18.30;61.40;;;;;;5087439;28;20020;-89
2021/06/06 19:01:14;;;;;;;8.05;4.78;;;18.20;60.80;;;;;;5081285;28;20028;-89
2021/06/06 19:03:42;;;;;;;7.78;5.20;;;18.10;61.10;;;;;;5083582;28;20020;-89
2021/06/06 19:06:18;;;;;;;8.05;5.18;;;18.10;61.10;;;;;;5091293;28;20032;-89
2021/06/06 19:08:44;;;;;;;9.18;4.93;;;18.10;61.30;;;;;;5086432;28;20093;-89
2021/06/06 19:11:11;;;;;;;8.00;5.13;;;18.10;61.40;;;;;;5092791;28;20012;-89
2021/06/06 19:13:37;;;;;;;9.32;6.07;;;18.10;61.50;;;;;;5086500;28;20125;-88
2021/06/06 19:16:03;;;;;;;8.07;5.90;;;18.10;61.70;;;;;;5083640;28;20123;-90
2021/06/06 19:18:29;;;;;;;9.38;5.45;;;18.00;61.70;;;;;;5080297;28;20056;-88
2021/06/06 19:20:56;;;;;;;7.82;5.50;;;18.00;61.90;;;;;;5087628;28;20048;-88
2021/06/06 19:23:26;;;;;;;9.25;5.70;;;18.00;62.10;;;;;;5080407;28;20461;-89
2021/06/06 19:25:53;;;;;;;7.38;5.38;;;17.90;62.10;;;;;;5078388;28;20397;-89
2021/06/06 19:28:21;;;;;;;7.00;4.25;;;17.80;62.10;;;;;;5092360;28;20031;-88
2021/06/06 19:30:47;;;;;;;6.25;3.95;;;17.80;62.30;;;;;;5085945;28;20345;-88
2021/06/06 19:33:15;;;;;;;8.48;5.07;;;17.70;62.40;;;;;;5084687;28;20035;-90
2021/06/06 19:35:45;;;;;;;10.30;4.70;;;17.60;62.60;;;;;;5084017;28;20125;-89
2021/06/06 19:38:12;;;;;;;9.18;5.40;;;17.60;62.80;;;;;;5091901;28;20028;-85
2021/06/06 19:40:38;;;;;;;8.48;4.90;;;17.50;62.90;;;;;;5075094;28;20055;-84
2021/06/06 19:43:06;;;;;;;7.75;5.10;;;17.50;63.10;;;;;;5085526;28;20036;-84
2021/06/06 19:45:33;;;;;;;7.25;5.10;;;17.40;63.30;;;;;;5090487;28;20114;-85
2021/06/06 19:48:00;;;;;;;8.40;4.88;;;17.30;63.80;;;;;;5089889;28;20091;-85
2021/06/06 19:50:27;;;;;;;7.97;5.03;;;17.30;64.10;;;;;;5086492;28;20046;-88
2021/06/06 19:52:54;;;;;;;9.13;5.55;;;17.30;64.30;;;;;;5089793;28;20469;-86
2021/06/06 19:55:37;;;;;;;7.18;5.63;;;17.20;64.40;;;;;;5090525;28;20097;-86
2021/06/06 19:58:03;;;;;;;;;;;17.20;64.60;;;;;;5081228;28;20036;-86
2021/06/06 20:00:30;;;;;;;7.68;4.35;;;17.10;65.50;;;;;;5091146;28;19914;-85
2021/06/06 20:02:55;;;;;;;8.38;5.15;;;17.10;64.40;;;;;;5090996;28;20052;-85
2021/06/06 20:05:32;;;;;;;7.38;5.45;;;17.20;64.60;;;;;;5083717;28;20522;-85
2021/06/06 20:07:59;;;;;;;6.70;4.68;;;17.20;64.90;;;;;;5077802;28;20039;-84
2021/06/06 20:10:30;;;;;;;6.65;4.53;;;17.10;64.70;;;;;;5085725;28;20028;-86
2021/06/06 20:12:56;;;;;;;9.82;5.18;;;17.10;64.80;;;;;;5087974;28;20055;-87
2021/06/06 20:15:25;;;;;;;8.80;5.45;;;17.10;64.90;;;;;;5084343;28;20111;-87
2021/06/06 20:17:51;;;;;;;6.38;4.53;;;17.10;65.10;;;;;;5091142;28;20020;-87
2021/06/06 20:20:20;;;;;;;7.10;4.78;;;17.10;65.20;;;;;;5092580;28;20024;-87
2021/06/06 20:22:48;;;;;;;8.30;4.80;;;17.00;65.30;;;;;;5090289;28;20058;-87
2021/06/06 20:25:14;;;;;;;8.52;5.38;;;17.00;65.30;;;;;;5081100;28;20028;-87
2021/06/06 20:27:41;;;;;;;9.38;5.57;;;17.00;65.50;;;;;;5087043;28;20111;-87
2021/06/06 20:30:14;;;;;;;6.70;4.85;;;16.90;65.70;;;;;;5092243;28;20660;-87
2021/06/06 20:32:39;;;;;;;;;;;16.90;66.10;;;;;;5086728;28;20039;-87
2021/06/06 20:35:25;;;;;;;6.65;4.50;;;16.80;67.70;;;;;;5085664;28;19912;-87
2021/06/06 20:37:56;;;;;;;6.82;4.40;;;16.80;66.20;;;;;;5086229;28;20024;-86
2021/06/06 20:40:25;;;;;;;6.57;4.50;;;16.80;66.20;;;;;;5085784;28;20024;-86
2021/06/06 20:42:53;;;;;;;7.22;4.50;;;16.80;66.20;;;;;;5092545;28;20035;-88
2021/06/06 20:45:23;;;;;;;8.05;5.07;;;16.70;66.30;;;;;;5095325;28;20111;-88
2021/06/06 20:47:55;;;;;;;7.97;4.57;;;16.80;66.50;;;;;;5089794;28;20044;-88
2021/06/06 20:50:23;;;;;;;7.45;4.60;;;16.70;66.90;;;;;;5084948;28;20229;-87
2021/06/06 20:52:49;;;;;;;7.93;4.47;;;16.80;67.20;;;;;;5088692;28;20081;-88
2021/06/06 20:55:19;;;;;;;8.05;4.50;;;16.80;67.00;;;;;;5091874;28;20366;-88
2021/06/06 20:57:46;;;;;;;9.82;4.85;;;16.70;67.00;;;;;;5077405;28;20451;-87
2021/06/06 21:00:15;;;;;;;6.50;4.30;;;16.70;66.90;;;;;;5090250;28;20105;-88
2021/06/06 21:02:43;;;;;;;5.55;4.10;;;16.70;66.80;;;;;;5097123;28;20028;-87
2021/06/06 21:05:10;;;;;;;6.28;3.78;;;16.70;66.70;;;;;;5088024;28;20115;-87
2021/06/06 21:07:36;;;;;;;5.68;4.43;;;16.70;66.90;;;;;;5095531;28;20036;-87
2021/06/06 21:10:03;;;;;;;5.57;3.97;;;16.70;66.70;;;;;;5080292;28;20461;-87
2021/06/06 21:12:29;;;;;;;5.57;4.10;;;16.70;66.70;;;;;;5083260;28;20545;-88
2021/06/06 21:14:55;;;;;;;6.10;4.20;;;16.80;66.70;;;;;;5087741;28;20055;-87
2021/06/06 21:17:20;;;;;;;8.02;4.07;;;16.70;66.90;;;;;;5087498;28;20028;-87
2021/06/06 21:19:46;;;;;;;6.60;3.80;;;16.80;66.90;;;;;;5090492;28;20437;-88
2021/06/06 21:22:12;;;;;;;5.70;4.05;;;16.80;67.00;;;;;;5082300;28;20497;-87
2021/06/06 21:24:38;;;;;;;5.38;3.80;;;16.80;67.10;;;;;;5081493;28;20049;-87
2021/06/06 21:27:05;;;;;;;6.20;3.53;;;16.80;67.70;;;;;;5091070;28;20024;-89
2021/06/06 21:29:33;;;;;;;5.53;3.65;;;16.80;68.30;;;;;;5095451;28;20327;-90
2021/06/06 21:32:00;;;;;;;4.63;3.60;;;16.80;68.70;;;;;;5099315;28;20066;-90
2021/06/06 21:34:26;;;;;;;4.80;3.40;;;16.90;68.60;;;;;;5092763;28;20016;-89
2021/06/06 21:36:51;;;;;;;5.50;4.18;;;16.90;68.80;;;;;;5094155;28;20022;-88
2021/06/06 21:39:18;;;;;;;4.90;3.97;;;16.80;69.60;;;;;;5095143;28;20131;-89
2021/06/06 21:41:48;;;;;;;5.93;3.80;;;16.80;69.50;;;;;;5087636;28;20028;-90
2021/06/06 21:44:25;;;;;;;5.30;3.47;;;16.80;69.40;;;;;;5081476;28;20020;-89
2021/06/06 21:46:52;;;;;;;4.93;3.85;;;16.80;71.40;;;;;;5085526;28;20024;-89
2021/06/06 21:49:19;;;;;;;5.05;3.65;;;16.70;70.00;;;;;;5077877;28;20052;-90
2021/06/06 21:51:46;;;;;;;5.43;3.63;;;16.70;70.10;;;;;;5085566;28;20013;-89
2021/06/06 21:54:13;;;;;;;5.43;3.70;;;16.60;70.30;;;;;;5084183;28;20082;-91
2021/06/06 21:56:40;;;;;;;5.35;3.90;;;16.60;70.30;;;;;;5079618;28;20027;-91
2021/06/06 21:59:06;;;;;;;5.93;4.10;;;16.60;70.50;;;;;;5091294;28;20381;-89
2021/06/06 22:01:35;;;;;;;5.35;4.30;;;16.50;70.50;;;;;;5091810;28;20020;-90
2021/06/06 22:04:02;;;;;;;6.20;3.92;;;16.50;70.50;;;;;;5080660;28;20024;-90
2021/06/06 22:06:36;;;;;;;5.38;4.07;;;16.50;70.50;;;;;;5088093;28;20036;-89
2021/06/06 22:09:11;;;;;;;5.80;3.90;;;16.40;71.30;;;;;;5093317;28;20020;-90
2021/06/06 22:11:38;;;;;;;6.00;4.28;;;16.40;71.10;;;;;;5093538;28;20024;-88
2021/06/06 22:14:04;;;;;;;5.57;4.25;;;16.30;71.30;;;;;;5086130;28;20152;-86
2021/06/06 22:16:30;;;;;;;5.60;4.00;;;16.20;71.40;;;;;;5081315;28;20063;-88
2021/06/06 22:21:59;;;;;;;5.97;4.50;;;16.20;71.50;;;;;;5093843;28;20028;-88
2021/06/06 22:25:02;;;;;;;5.57;4.60;;;16.20;72.10;;;;;;5088633;28;20038;-87
2021/06/06 22:28:05;;;;;;;5.25;4.25;;;16.10;71.80;;;;;;5085127;28;20023;-86
2021/06/06 22:31:08;;;;;;;5.45;4.32;;;16.10;71.60;;;;;;5088345;28;20020;-87
2021/06/06 22:34:11;;;;;;;5.97;4.40;;;16.00;71.80;;;;;;5080809;28;20028;-87
2021/06/06 22:37:14;;;;;;;5.97;3.93;;;16.00;72.40;;;;;;5090275;28;20031;-87
2021/06/06 22:40:18;;;;;;;5.50;3.85;;;15.90;71.90;;;;;;5092261;28;20038;-88
2021/06/06 22:43:21;;;;;;;6.35;3.88;;;15.80;72.40;;;;;;5089848;28;20051;-87
2021/06/06 22:46:24;;;;;;;4.95;3.67;;;15.80;72.60;;;;;;5079864;28;20498;-86
2021/06/06 22:49:27;;;;;;;5.05;3.55;;;15.80;72.70;;;;;;5081751;28;20627;-88
2021/06/06 22:52:30;;;;;;;4.80;3.40;;;15.70;73.40;;;;;;5083237;28;20479;-86
2021/06/06 22:55:33;;;;;;;4.63;3.63;;;15.70;72.80;;;;;;5080811;28;20065;-86
2021/06/06 22:58:35;;;;;;;3.63;3.00;;;15.70;72.60;;;;;;5081632;28;20399;-87
2021/06/06 23:01:38;;;;;;;5.13;3.23;;;15.70;72.80;;;;;;5078582;28;20107;-87
2021/06/06 23:04:41;;;;;;;4.00;3.00;;;15.70;73.60;;;;;;5093199;28;20328;-88
2021/06/06 23:07:44;;;;;;;4.47;3.47;;;15.70;74.80;;;;;;5084756;28;20336;-87
2021/06/06 23:10:48;;;;;;;4.50;3.40;;;15.80;73.70;;;;;;5086536;28;20041;-86
2021/06/06 23:13:50;;;;;;;5.65;3.55;;;15.80;74.40;;;;;;5078461;28;20066;-86
2021/06/06 23:16:45;;;;;;;4.77;3.80;;;15.90;74.90;;;;;;5092850;28;20476;-86
2021/06/06 23:19:27;;;;;;;5.70;3.70;;;15.90;75.70;;;;;;5096057;28;20032;-86
2021/06/06 23:22:23;;;;;;;6.20;3.88;;;15.90;73.80;;;;;;5086846;28;20465;-87
2021/06/06 23:24:57;;;;;;;3.80;3.40;;;16.00;75.70;;;;;;5085167;28;20087;-87
2021/06/06 23:27:25;;;;;;;5.28;3.58;;;16.10;73.90;;;;;;5087157;28;20048;-86
2021/06/06 23:29:51;;;;;;;5.22;3.35;;;16.10;73.70;;;;;;5085030;28;20366;-86